createdAt,value
2022-12-25T00:04:42.026Z,10.50
2022-12-25T00:09:44.139Z,10.50
2022-12-25T00:14:46.428Z,10.50
2022-12-25T00:19:48.578Z,10.50
2022-12-25T00:24:50.752Z,10.50
2022-12-25T00:29:52.891Z,10.50
2022-12-25T00:34:55.620Z,10.50
2022-12-25T00:39:57.783Z,10.50
2022-12-25T00:45:01.567Z,10.50
2022-12-25T00:50:04.238Z,10.50
2022-12-25T00:55:06.848Z,10.50
2022-12-25T01:00:09.808Z,10.50
2022-12-25T01:05:12.027Z,10.50
2022-12-25T01:10:23.084Z,10.50
2022-12-25T01:15:25.384Z,10.50
2022-12-25T01:20:28.689Z,10.60
2022-12-25T01:25:30.770Z,10.60
2022-12-25T01:30:33.182Z,10.60
2022-12-25T01:35:38.901Z,10.60
2022-12-25T01:40:41.144Z,10.70
2022-12-25T01:45:44.828Z,10.70
2022-12-25T01:50:53.935Z,10.70
2022-12-25T01:56:03.394Z,10.70
2022-12-25T02:01:05.600Z,10.70
2022-12-25T02:06:08.300Z,10.70
2022-12-25T02:11:33.024Z,10.70
2022-12-25T02:16:57.371Z,10.70
2022-12-25T02:22:38.595Z,10.70
2022-12-25T02:28:06.866Z,10.70
2022-12-25T02:33:55.189Z,10.80
2022-12-25T02:39:19.338Z,10.80
2022-12-25T02:44:41.846Z,10.80
2022-12-25T02:50:04.100Z,10.90
2022-12-25T02:55:40.700Z,10.90
2022-12-25T03:01:08.264Z,10.90
2022-12-25T03:06:29.931Z,10.90
2022-12-25T03:11:33.196Z,10.90
2022-12-25T03:16:50.615Z,10.90
2022-12-25T03:22:13.718Z,10.90
2022-12-25T03:27:16.352Z,11.00
2022-12-25T03:32:40.353Z,11.00
2022-12-25T03:38:24.277Z,11.00
2022-12-25T03:44:01.904Z,11.00
2022-12-25T03:49:40.266Z,11.00
2022-12-25T03:55:04.326Z,11.00
2022-12-25T04:00:26.083Z,11.00
2022-12-25T04:05:46.684Z,11.00
2022-12-25T04:11:07.518Z,11.00
2022-12-25T04:16:28.446Z,10.90
2022-12-25T04:21:49.147Z,11.00
2022-12-25T04:27:09.954Z,11.00
2022-12-25T04:32:30.622Z,11.00
2022-12-25T04:37:32.751Z,11.00
2022-12-25T04:42:34.908Z,11.00
2022-12-25T04:47:37.149Z,11.00
2022-12-25T04:52:41.040Z,10.90
2022-12-25T04:57:43.151Z,10.90
2022-12-25T05:02:45.477Z,10.90
2022-12-25T05:07:47.670Z,10.90
2022-12-25T05:12:49.840Z,10.80
2022-12-25T05:17:52.135Z,10.70
2022-12-25T05:22:54.221Z,10.80
2022-12-25T05:27:56.329Z,10.70
2022-12-25T05:32:58.403Z,10.70
2022-12-25T05:38:00.495Z,10.60
2022-12-25T05:43:02.657Z,10.60
2022-12-25T05:48:04.905Z,10.60
2022-12-25T05:53:12.242Z,10.60
2022-12-25T05:58:14.488Z,10.50
2022-12-25T06:03:16.811Z,10.50
2022-12-25T06:08:19.313Z,10.40
2022-12-25T06:13:21.437Z,10.40
2022-12-25T06:18:23.606Z,10.40
2022-12-25T06:23:25.766Z,10.30
2022-12-25T06:28:27.885Z,10.30
2022-12-25T06:33:30.459Z,10.20
2022-12-25T06:38:32.586Z,10.20
2022-12-25T06:43:34.927Z,10.10
2022-12-25T06:48:38.564Z,10.00
2022-12-25T06:53:41.014Z,9.90
2022-12-25T06:58:48.563Z,9.90
2022-12-25T07:03:54.683Z,9.90
2022-12-25T07:08:56.944Z,9.90
2022-12-25T07:13:59.073Z,9.90
2022-12-25T07:19:01.427Z,9.90
2022-12-25T07:24:03.863Z,9.90
2022-12-25T07:29:06.018Z,9.80
2022-12-25T07:34:08.419Z,9.80
2022-12-25T07:39:11.571Z,9.80
2022-12-25T07:44:13.738Z,9.80
2022-12-25T07:49:15.949Z,9.80
2022-12-25T07:54:18.271Z,9.80
2022-12-25T07:59:20.903Z,9.80
2022-12-25T08:04:23.122Z,9.80
2022-12-25T08:09:25.288Z,9.70
2022-12-25T08:14:27.585Z,9.70
2022-12-25T08:19:30.100Z,9.70
2022-12-25T08:24:32.202Z,9.70
2022-12-25T08:29:34.378Z,9.80
2022-12-25T08:34:38.926Z,9.80
2022-12-25T08:39:41.016Z,9.80
2022-12-25T08:44:43.169Z,9.80
2022-12-25T08:49:45.481Z,9.80
2022-12-25T08:54:48.067Z,9.80
2022-12-25T08:59:50.235Z,9.90
2022-12-25T09:04:52.386Z,10.00
2022-12-25T09:09:54.497Z,10.10
2022-12-25T09:14:56.679Z,10.10
2022-12-25T09:19:58.901Z,10.10
2022-12-25T09:25:01.032Z,10.10
2022-12-25T09:30:03.769Z,10.10
2022-12-25T09:35:07.770Z,10.20
2022-12-25T09:40:18.669Z,10.20
2022-12-25T09:45:32.949Z,10.30
2022-12-25T09:50:47.671Z,10.40
2022-12-25T09:56:25.521Z,10.50
2022-12-25T10:01:54.485Z,10.60
2022-12-25T10:07:31.803Z,10.50
2022-12-25T10:12:49.402Z,10.60
2022-12-25T10:18:16.007Z,10.70
2022-12-25T10:23:41.662Z,10.80
2022-12-25T10:28:53.853Z,10.80
2022-12-25T10:33:56.336Z,10.80
2022-12-25T10:38:58.532Z,10.70
2022-12-25T10:44:01.100Z,10.80
2022-12-25T10:49:03.786Z,10.80
2022-12-25T10:54:31.416Z,10.70
2022-12-25T10:59:43.758Z,10.80
2022-12-25T11:04:46.195Z,10.80
2022-12-25T11:10:02.623Z,10.90
2022-12-25T11:15:29.839Z,11.00
2022-12-25T11:20:33.324Z,11.10
2022-12-25T11:25:35.530Z,11.10
2022-12-25T11:30:39.117Z,11.10
2022-12-25T11:35:47.828Z,11.20
2022-12-25T11:40:53.891Z,11.20
2022-12-25T11:46:16.853Z,11.30
2022-12-25T11:51:20.881Z,11.30
2022-12-25T11:56:25.936Z,11.30
2022-12-25T12:01:37.099Z,11.40
2022-12-25T12:06:54.030Z,11.50
2022-12-25T12:12:17.389Z,11.60
2022-12-25T12:17:20.353Z,11.60
2022-12-25T12:22:27.564Z,11.60
2022-12-25T12:27:41.044Z,11.60
2022-12-25T12:32:51.813Z,11.70
2022-12-25T12:37:57.515Z,11.70
2022-12-25T12:43:00.772Z,11.60
2022-12-25T12:48:14.856Z,11.60
2022-12-25T12:53:23.533Z,11.60
2022-12-25T12:58:35.004Z,11.80
2022-12-25T13:03:52.103Z,11.90
2022-12-25T13:09:31.725Z,12.00
2022-12-25T13:14:34.685Z,11.90
2022-12-25T13:19:37.883Z,11.80
2022-12-25T13:24:39.969Z,11.70
2022-12-25T13:29:42.008Z,11.70
2022-12-25T13:34:44.156Z,11.80
2022-12-25T13:39:59.574Z,11.90
2022-12-25T13:45:23.636Z,11.80
2022-12-25T13:50:27.266Z,11.90
2022-12-25T13:55:30.588Z,11.90
2022-12-25T14:00:35.961Z,11.90
2022-12-25T14:05:42.817Z,11.90
2022-12-25T14:10:50.030Z,11.80
2022-12-25T14:15:53.646Z,11.60
2022-12-25T14:20:58.806Z,11.50
2022-12-25T14:26:01.026Z,11.30
2022-12-25T14:31:04.953Z,11.30
2022-12-25T14:36:07.933Z,11.20
2022-12-25T14:41:34.289Z,11.20
2022-12-25T14:46:36.325Z,11.10
2022-12-25T14:51:39.311Z,11.10
2022-12-25T14:56:47.579Z,11.10
2022-12-25T15:01:59.346Z,11.10
2022-12-25T15:07:11.426Z,11.00
2022-12-25T15:12:13.534Z,11.00
2022-12-25T15:17:27.606Z,11.00
2022-12-25T15:22:47.646Z,11.00
2022-12-25T15:27:51.876Z,10.90
2022-12-25T15:32:54.036Z,10.90
2022-12-25T15:37:56.202Z,11.00
2022-12-25T15:42:58.308Z,11.00
2022-12-25T15:48:00.451Z,11.00
2022-12-25T15:53:02.686Z,10.90
2022-12-25T15:58:04.859Z,10.90
2022-12-25T16:03:07.118Z,10.90
2022-12-25T16:08:09.568Z,10.80
2022-12-25T16:13:11.732Z,10.80
2022-12-25T16:18:13.964Z,10.80
2022-12-25T16:23:16.208Z,10.70
2022-12-25T16:28:18.314Z,10.70
2022-12-25T16:33:20.423Z,10.60
2022-12-25T16:38:22.904Z,10.70
2022-12-25T16:43:25.787Z,10.60
2022-12-25T16:48:27.888Z,10.60
2022-12-25T16:53:30.313Z,10.50
2022-12-25T16:58:32.435Z,10.50
2022-12-25T17:03:35.004Z,10.40
2022-12-25T17:08:37.161Z,10.40
2022-12-25T17:13:39.697Z,10.40
2022-12-25T17:18:42.634Z,10.30
2022-12-25T17:23:45.218Z,10.30
2022-12-25T17:28:47.319Z,10.20
2022-12-25T17:33:49.424Z,10.10
2022-12-25T17:38:51.677Z,10.10
2022-12-25T17:43:53.762Z,10.00
2022-12-25T17:48:57.384Z,10.00
2022-12-25T17:54:04.579Z,9.90
2022-12-25T17:59:08.418Z,9.90
2022-12-25T18:04:10.678Z,9.90
2022-12-25T18:09:13.620Z,9.80
2022-12-25T18:14:16.642Z,9.70
2022-12-25T18:19:19.847Z,9.60
2022-12-25T18:24:21.956Z,9.60
2022-12-25T18:29:24.069Z,9.60
2022-12-25T18:34:26.213Z,9.50
2022-12-25T18:39:28.970Z,9.50
2022-12-25T18:44:31.027Z,9.40
2022-12-25T18:49:34.779Z,9.40
2022-12-25T18:54:37.101Z,9.40
2022-12-25T18:59:39.589Z,9.40
2022-12-25T19:04:45.203Z,9.40
2022-12-25T19:09:47.340Z,9.40
2022-12-25T19:14:49.947Z,9.40
2022-12-25T19:19:52.015Z,9.40
2022-12-25T19:24:54.120Z,9.40
2022-12-25T19:29:56.276Z,9.40
2022-12-25T19:34:58.529Z,9.50
2022-12-25T19:40:00.699Z,9.50
2022-12-25T19:45:03.365Z,9.60
2022-12-25T19:50:06.134Z,9.60
2022-12-25T19:55:08.875Z,9.60
2022-12-25T20:00:11.416Z,9.60
2022-12-25T20:05:15.691Z,9.60
2022-12-25T20:10:17.768Z,9.70
2022-12-25T20:15:20.213Z,9.70
2022-12-25T20:20:22.326Z,9.70
2022-12-25T20:25:24.388Z,9.70
2022-12-25T20:30:26.522Z,9.80
2022-12-25T20:35:28.671Z,9.70
2022-12-25T20:40:32.453Z,9.70
2022-12-25T20:45:43.781Z,9.80
2022-12-25T20:50:45.982Z,9.80
2022-12-25T20:55:49.720Z,9.80
2022-12-25T21:00:51.859Z,9.90
2022-12-25T21:05:55.370Z,9.80
2022-12-25T21:11:00.927Z,9.90
2022-12-25T21:16:09.107Z,9.80
2022-12-25T21:21:12.032Z,9.90
2022-12-25T21:26:23.133Z,9.90
2022-12-25T21:31:25.642Z,9.80
2022-12-25T21:36:29.200Z,9.80
2022-12-25T21:41:32.183Z,9.70
2022-12-25T21:46:34.491Z,9.80
2022-12-25T21:51:55.374Z,9.80
2022-12-25T21:56:57.411Z,9.90
2022-12-25T22:01:59.724Z,9.90
2022-12-25T22:07:17.221Z,10.00
2022-12-25T22:12:39.632Z,10.00
2022-12-25T22:18:01.544Z,10.10
2022-12-25T22:23:04.374Z,10.10
2022-12-25T22:28:08.641Z,10.20
2022-12-25T22:33:10.987Z,10.20
2022-12-25T22:38:13.016Z,10.20
2022-12-25T22:43:15.078Z,10.30
2022-12-25T22:48:17.115Z,10.30
2022-12-25T22:53:19.509Z,10.20
2022-12-25T22:58:21.602Z,10.10
2022-12-25T23:03:23.827Z,10.20
2022-12-25T23:08:25.999Z,10.20
2022-12-25T23:13:46.781Z,10.10
2022-12-25T23:19:07.634Z,10.20
2022-12-25T23:24:28.403Z,10.10
2022-12-25T23:29:36.361Z,10.20
2022-12-25T23:34:40.971Z,10.20
2022-12-25T23:39:43.391Z,10.10
2022-12-25T23:44:45.792Z,10.10
2022-12-25T23:49:47.930Z,10.20
2022-12-25T23:54:50.062Z,10.20
2022-12-25T23:59:52.198Z,10.20
